createdAt,value
2023-04-28T00:01:19.033Z,99.04
2023-04-28T00:03:48.070Z,98.07
2023-04-28T00:06:16.694Z,95.50
2023-04-28T00:08:45.073Z,95.92
2023-04-28T00:11:15.252Z,94.11
2023-04-28T00:13:44.119Z,93.53
2023-04-28T00:16:14.630Z,93.30
2023-04-28T00:18:43.541Z,93.37
2023-04-28T00:21:14.050Z,93.27
2023-04-28T00:23:42.465Z,94.45
2023-04-28T00:26:11.592Z,92.58
2023-04-28T00:28:44.016Z,91.79
2023-04-28T00:31:15.113Z,90.53
2023-04-28T00:33:44.724Z,90.15
2023-04-28T00:36:13.292Z,90.84
2023-04-28T00:38:42.025Z,92.01
2023-04-28T00:41:14.014Z,92.72
2023-04-28T00:43:49.561Z,94.03
2023-04-28T00:46:26.429Z,92.15
2023-04-28T00:48:54.921Z,94.00
2023-04-28T00:51:23.507Z,94.99
2023-04-28T00:53:52.948Z,92.94
2023-04-28T00:56:21.893Z,92.21
2023-04-28T00:58:50.270Z,92.27
2023-04-28T01:01:20.139Z,92.79
2023-04-28T01:03:49.377Z,93.97
2023-04-28T01:06:18.614Z,93.92
2023-04-28T01:08:51.359Z,93.62
2023-04-28T01:11:20.107Z,93.59
2023-04-28T01:13:51.463Z,94.48
2023-04-28T01:16:20.008Z,94.85
2023-04-28T01:18:49.668Z,93.88
2023-04-28T01:21:29.071Z,93.10
2023-04-28T01:23:59.474Z,91.33
2023-04-28T01:26:28.347Z,91.18
2023-04-28T01:28:56.745Z,91.84
2023-04-28T01:31:25.270Z,92.14
2023-04-28T01:33:53.661Z,92.23
2023-04-28T01:36:23.629Z,91.32
2023-04-28T01:38:52.673Z,90.93
2023-04-28T01:41:21.101Z,90.25
2023-04-28T01:43:49.503Z,90.77
2023-04-28T01:46:18.027Z,89.71
2023-04-28T01:48:46.489Z,88.78
2023-04-28T01:51:15.217Z,88.35
2023-04-28T01:53:44.260Z,88.05
2023-04-28T01:56:12.792Z,89.63
2023-04-28T01:58:41.085Z,89.36
2023-04-28T02:01:09.500Z,89.74
2023-04-28T02:03:38.176Z,88.20
2023-04-28T02:06:07.306Z,88.18
2023-04-28T02:08:35.725Z,88.19
2023-04-28T02:11:04.993Z,89.13
2023-04-28T02:13:33.414Z,87.54
2023-04-28T02:16:05.027Z,88.15
2023-04-28T02:18:36.540Z,87.72
2023-04-28T02:21:12.762Z,87.93
2023-04-28T02:23:41.995Z,86.68
2023-04-28T02:26:10.386Z,85.86
2023-04-28T02:28:38.823Z,84.55
2023-04-28T02:31:08.991Z,84.21
2023-04-28T02:33:38.135Z,84.96
2023-04-28T02:36:07.779Z,83.64
2023-04-28T02:38:36.803Z,82.74
2023-04-28T02:41:07.415Z,81.23
2023-04-28T02:43:36.625Z,82.38
2023-04-28T02:46:06.664Z,81.41
2023-04-28T02:48:36.875Z,78.09
2023-04-28T02:51:05.237Z,78.74
2023-04-28T02:53:33.693Z,77.67
2023-04-28T02:56:03.191Z,74.65
2023-04-28T02:58:31.749Z,75.66
2023-04-28T03:01:00.256Z,75.05
2023-04-28T03:03:29.398Z,75.65
2023-04-28T03:05:58.021Z,75.47
2023-04-28T03:08:26.538Z,75.40
2023-04-28T03:10:55.070Z,74.18
2023-04-28T03:13:23.482Z,69.27
2023-04-28T03:15:51.993Z,69.29
2023-04-28T03:18:20.440Z,73.98
2023-04-28T03:20:48.822Z,69.99
2023-04-28T03:23:17.546Z,72.67
2023-04-28T03:25:46.245Z,71.69
2023-04-28T03:28:14.672Z,71.95
2023-04-28T03:30:43.086Z,72.02
2023-04-28T03:33:11.592Z,68.89
2023-04-28T03:35:40.035Z,68.62
2023-04-28T03:38:08.617Z,69.51
2023-04-28T03:40:37.988Z,66.64
2023-04-28T03:43:06.408Z,68.06
2023-04-28T03:45:35.049Z,65.21
2023-04-28T03:48:03.528Z,64.95
2023-04-28T03:50:31.941Z,64.87
2023-04-28T03:53:00.431Z,62.72
2023-04-28T03:55:28.940Z,68.46
2023-04-28T03:57:57.515Z,64.33
2023-04-28T04:00:25.976Z,58.80
2023-04-28T04:02:54.657Z,61.14
2023-04-28T04:05:23.639Z,58.09
2023-04-28T04:07:52.087Z,57.66
2023-04-28T04:10:20.569Z,61.95
2023-04-28T04:12:49.114Z,58.36
2023-04-28T04:15:17.635Z,66.42
2023-04-28T04:17:46.086Z,60.96
2023-04-28T04:20:14.624Z,57.34
2023-04-28T04:22:43.439Z,64.95
2023-04-28T04:25:12.102Z,62.29
2023-04-28T04:27:40.797Z,62.40
2023-04-28T04:30:09.920Z,64.52
2023-04-28T04:32:38.379Z,63.77
2023-04-28T04:35:07.143Z,64.11
2023-04-28T04:37:35.637Z,66.11
2023-04-28T04:40:04.564Z,64.02
2023-04-28T04:42:33.013Z,65.96
2023-04-28T04:45:01.589Z,64.26
2023-04-28T04:47:30.074Z,65.03
2023-04-28T04:49:58.623Z,65.48
2023-04-28T04:52:27.118Z,64.93
2023-04-28T04:54:57.503Z,63.74
2023-04-28T04:57:25.987Z,62.98
2023-04-28T04:59:54.456Z,61.49
2023-04-28T05:02:22.983Z,64.28
2023-04-28T05:04:51.680Z,64.29
2023-04-28T05:07:20.174Z,60.45
2023-04-28T05:09:48.653Z,62.11
2023-04-28T05:12:17.176Z,61.96
2023-04-28T05:14:45.591Z,59.33
2023-04-28T05:17:14.124Z,61.45
2023-04-28T05:19:42.531Z,59.58
2023-04-28T05:22:10.957Z,61.62
2023-04-28T05:24:39.527Z,62.37
2023-04-28T05:27:08.161Z,61.53
2023-04-28T05:29:36.654Z,62.48
2023-04-28T05:32:06.256Z,59.51
2023-04-28T05:34:34.723Z,61.95
2023-04-28T05:37:03.170Z,60.85
2023-04-28T05:39:31.637Z,61.09
2023-04-28T05:42:00.072Z,59.68
2023-04-28T05:44:28.458Z,57.08
2023-04-28T05:46:57.066Z,58.89
2023-04-28T05:49:25.539Z,57.30
2023-04-28T05:51:53.925Z,61.12
2023-04-28T05:54:22.355Z,59.84
2023-04-28T05:56:50.889Z,59.73
2023-04-28T05:59:19.296Z,59.99
2023-04-28T06:01:47.867Z,61.88
2023-04-28T06:04:16.757Z,60.75
2023-04-28T06:06:45.725Z,59.30
2023-04-28T06:09:14.181Z,59.91
2023-04-28T06:11:42.686Z,58.68
2023-04-28T06:14:11.337Z,58.28
2023-04-28T06:16:39.866Z,59.37
2023-04-28T06:19:09.907Z,58.60
2023-04-28T06:21:38.585Z,58.45
2023-04-28T06:24:07.182Z,58.98
2023-04-28T06:26:35.595Z,58.10
2023-04-28T06:29:04.294Z,57.67
2023-04-28T06:31:32.805Z,55.14
2023-04-28T06:34:01.374Z,58.31
2023-04-28T06:36:29.890Z,57.27
2023-04-28T06:38:59.812Z,57.68
2023-04-28T06:41:30.129Z,58.60
2023-04-28T06:43:58.663Z,55.75
2023-04-28T06:46:27.851Z,56.97
2023-04-28T06:48:56.517Z,58.60
2023-04-28T06:51:24.908Z,55.83
2023-04-28T06:53:54.374Z,56.37
2023-04-28T06:56:23.234Z,57.42
2023-04-28T06:58:52.198Z,58.22
2023-04-28T07:01:20.660Z,56.32
2023-04-28T07:03:49.901Z,57.23
2023-04-28T07:06:18.573Z,55.91
2023-04-28T07:08:47.428Z,56.80
2023-04-28T07:11:16.760Z,55.04
2023-04-28T07:13:45.199Z,56.47
2023-04-28T07:16:13.659Z,56.38
2023-04-28T07:18:42.524Z,55.65
2023-04-28T07:21:10.999Z,53.36
2023-04-28T07:23:39.900Z,56.46
2023-04-28T07:26:09.169Z,56.66
2023-04-28T07:28:37.666Z,54.94
2023-04-28T07:31:06.070Z,55.89
2023-04-28T07:33:34.470Z,55.14
2023-04-28T07:36:02.972Z,54.60
2023-04-28T07:38:31.504Z,57.54
2023-04-28T07:41:00.025Z,54.39
2023-04-28T07:43:28.501Z,54.47
2023-04-28T07:45:57.316Z,57.64
2023-04-28T07:48:26.007Z,56.20
2023-04-28T07:50:55.028Z,54.26
2023-04-28T07:53:23.485Z,57.51
2023-04-28T07:55:52.369Z,55.93
2023-04-28T07:58:20.833Z,57.08
2023-04-28T08:00:49.250Z,56.32
2023-04-28T08:03:17.824Z,56.81
2023-04-28T08:05:46.586Z,56.86
2023-04-28T08:08:15.104Z,58.06
2023-04-28T08:10:44.812Z,54.77
2023-04-28T08:13:13.269Z,58.17
2023-04-28T08:15:41.738Z,55.44
2023-04-28T08:18:10.369Z,56.62
2023-04-28T08:20:38.834Z,56.48
2023-04-28T08:23:07.289Z,55.15
2023-04-28T08:25:35.760Z,56.57
2023-04-28T08:28:04.743Z,53.42
2023-04-28T08:30:34.729Z,54.84
2023-04-28T08:33:03.171Z,56.37
2023-04-28T08:35:31.862Z,57.04
2023-04-28T08:38:00.477Z,56.00
2023-04-28T08:40:33.565Z,56.88
2023-04-28T08:43:02.098Z,57.35
2023-04-28T08:45:32.899Z,56.30
2023-04-28T08:48:04.836Z,56.19
2023-04-28T08:50:35.091Z,58.44
2023-04-28T08:53:06.367Z,57.13
2023-04-28T08:55:36.784Z,55.51
2023-04-28T08:58:06.305Z,56.41
2023-04-28T09:00:37.914Z,58.17
2023-04-28T09:03:07.684Z,57.97
2023-04-28T09:05:37.885Z,58.99
2023-04-28T09:08:06.823Z,59.94
2023-04-28T09:10:35.334Z,57.34
2023-04-28T09:13:03.844Z,56.89
2023-04-28T09:15:37.532Z,57.62
2023-04-28T09:18:08.076Z,55.95
2023-04-28T09:20:38.182Z,57.46
2023-04-28T09:23:18.514Z,58.34
2023-04-28T09:26:03.228Z,59.64
2023-04-28T09:28:32.903Z,60.58
2023-04-28T09:31:01.426Z,60.01
2023-04-28T09:33:31.865Z,60.95
2023-04-28T09:36:00.261Z,62.29
2023-04-28T09:38:28.682Z,60.13
2023-04-28T09:41:04.635Z,60.54
2023-04-28T09:43:37.078Z,60.72
2023-04-28T09:46:07.398Z,60.62
2023-04-28T09:48:40.000Z,61.29
2023-04-28T09:51:10.353Z,61.94
2023-04-28T09:53:40.724Z,61.04
2023-04-28T09:56:09.922Z,60.89
2023-04-28T09:58:41.940Z,61.46
2023-04-28T10:01:14.630Z,62.09
2023-04-28T10:03:44.641Z,62.24
2023-04-28T10:06:13.255Z,59.57
2023-04-28T10:08:42.432Z,60.47
2023-04-28T10:11:11.241Z,60.96
2023-04-28T10:13:40.087Z,62.65
2023-04-28T10:16:09.146Z,63.59
2023-04-28T10:18:38.913Z,64.10
2023-04-28T10:21:09.071Z,64.90
2023-04-28T10:23:58.990Z,63.90
2023-04-28T10:26:59.997Z,63.92
2023-04-28T10:29:29.003Z,63.88
2023-04-28T10:32:29.533Z,64.29
2023-04-28T10:35:22.577Z,65.02
2023-04-28T10:38:10.567Z,65.61
2023-04-28T10:40:43.189Z,65.91
2023-04-28T10:43:13.884Z,65.68
2023-04-28T10:45:56.821Z,65.77
2023-04-28T10:48:35.068Z,65.19
2023-04-28T10:51:10.564Z,65.66
2023-04-28T10:53:49.224Z,66.44
2023-04-28T10:56:28.435Z,67.13
2023-04-28T10:58:58.628Z,68.28
2023-04-28T11:01:33.939Z,67.74
2023-04-28T11:04:17.001Z,67.10
2023-04-28T11:06:47.753Z,67.02
2023-04-28T11:09:16.204Z,67.07
2023-04-28T11:12:07.084Z,66.99
2023-04-28T11:14:36.660Z,66.34
2023-04-28T11:17:06.584Z,64.08
2023-04-28T11:19:36.182Z,64.26
2023-04-28T11:22:12.587Z,64.76
2023-04-28T11:24:41.153Z,66.28
2023-04-28T11:27:09.718Z,65.87
2023-04-28T11:29:43.808Z,66.39
2023-04-28T11:32:13.046Z,65.46
2023-04-28T11:34:41.568Z,66.49
2023-04-28T11:37:10.892Z,69.19
2023-04-28T11:39:39.420Z,69.04
2023-04-28T11:42:12.329Z,71.67
2023-04-28T11:44:40.988Z,70.38
2023-04-28T11:47:09.438Z,71.75
2023-04-28T11:49:48.804Z,71.71
2023-04-28T11:52:17.490Z,71.62
2023-04-28T11:54:45.963Z,70.79
2023-04-28T11:57:22.400Z,71.11
2023-04-28T11:59:52.826Z,70.44
2023-04-28T12:02:30.828Z,70.65
2023-04-28T12:05:08.492Z,70.84
2023-04-28T12:07:46.665Z,70.81
2023-04-28T12:10:20.836Z,71.38
2023-04-28T12:12:52.374Z,71.85
2023-04-28T12:16:06.039Z,73.11
2023-04-28T12:18:14.403Z,73.32
2023-04-28T12:20:43.646Z,72.50
2023-04-28T12:23:12.188Z,73.93
2023-04-28T12:25:48.896Z,73.76
2023-04-28T12:28:17.370Z,74.58
2023-04-28T12:30:46.450Z,75.79
2023-04-28T12:33:28.435Z,75.60
2023-04-28T12:35:58.831Z,75.42
2023-04-28T12:38:28.440Z,74.48
2023-04-28T12:40:57.402Z,74.67
2023-04-28T12:43:28.133Z,74.26
2023-04-28T12:45:59.623Z,74.33
2023-04-28T12:48:29.055Z,74.36
2023-04-28T12:50:57.510Z,73.72
2023-04-28T12:53:25.886Z,73.04
2023-04-28T12:55:55.223Z,74.02
2023-04-28T12:58:23.793Z,73.91
2023-04-28T13:00:52.531Z,74.02
2023-04-28T13:03:22.306Z,74.64
2023-04-28T13:05:50.912Z,73.81
2023-04-28T13:08:19.355Z,73.89
2023-04-28T13:10:48.109Z,74.29
2023-04-28T13:13:16.509Z,75.21
2023-04-28T13:15:44.997Z,76.15
2023-04-28T13:18:13.399Z,75.00
2023-04-28T13:20:41.880Z,75.05
2023-04-28T13:23:10.292Z,75.03
2023-04-28T13:25:38.721Z,75.70
2023-04-28T13:28:07.387Z,75.47
2023-04-28T13:30:36.069Z,75.97
2023-04-28T13:33:04.492Z,76.83
2023-04-28T13:35:33.269Z,75.56
2023-04-28T13:38:04.380Z,76.03
2023-04-28T13:40:35.018Z,72.70
2023-04-28T13:43:03.482Z,70.84
2023-04-28T13:45:33.164Z,70.35
2023-04-28T13:48:01.637Z,69.88
2023-04-28T13:50:30.036Z,69.80
2023-04-28T13:52:59.682Z,69.91
2023-04-28T13:55:31.112Z,69.86
2023-04-28T13:58:03.631Z,70.47
2023-04-28T14:00:35.979Z,70.52
2023-04-28T14:03:04.679Z,70.22
2023-04-28T14:05:39.067Z,71.30
2023-04-28T14:08:14.886Z,71.32
2023-04-28T14:10:43.551Z,72.83
2023-04-28T14:13:12.291Z,72.03
2023-04-28T14:15:47.932Z,74.63
2023-04-28T14:18:23.468Z,73.81
2023-04-28T14:20:51.926Z,76.49
2023-04-28T14:23:20.377Z,76.90
2023-04-28T14:25:49.139Z,77.70
2023-04-28T14:28:17.829Z,78.46
2023-04-28T14:30:46.353Z,77.53
2023-04-28T14:33:15.281Z,74.06
2023-04-28T14:35:43.923Z,71.15
2023-04-28T14:38:14.264Z,71.05
2023-04-28T14:40:43.999Z,70.00
2023-04-28T14:43:12.530Z,69.69
2023-04-28T14:45:40.991Z,69.58
2023-04-28T14:48:11.416Z,69.50
2023-04-28T14:50:40.289Z,69.49
2023-04-28T14:53:08.680Z,69.01
2023-04-28T14:55:37.111Z,68.38
2023-04-28T14:58:05.476Z,68.77
2023-04-28T15:00:33.879Z,68.58
2023-04-28T15:03:02.392Z,68.65
2023-04-28T15:05:31.317Z,68.28
2023-04-28T15:07:59.790Z,70.58
2023-04-28T15:10:38.297Z,70.10
2023-04-28T15:13:07.921Z,69.59
2023-04-28T15:15:37.024Z,69.33
2023-04-28T15:18:06.065Z,69.16
2023-04-28T15:20:35.898Z,69.00
2023-04-28T15:23:04.404Z,69.13
2023-04-28T15:25:32.787Z,70.37
2023-04-28T15:28:01.364Z,72.66
2023-04-28T15:30:29.740Z,72.12
2023-04-28T15:32:58.138Z,72.30
2023-04-28T15:35:26.736Z,73.64
2023-04-28T15:37:56.562Z,74.25
2023-04-28T15:40:24.965Z,73.16
2023-04-28T15:42:54.067Z,72.66
2023-04-28T15:45:24.074Z,73.04
2023-04-28T15:47:52.756Z,72.74
2023-04-28T15:50:21.583Z,74.88
2023-04-28T15:52:50.774Z,75.72
2023-04-28T15:55:21.525Z,77.55
2023-04-28T15:57:50.281Z,76.93
2023-04-28T16:00:18.708Z,77.44
2023-04-28T16:02:47.565Z,75.63
2023-04-28T16:05:16.141Z,74.83
2023-04-28T16:07:45.457Z,74.35
2023-04-28T16:10:16.111Z,74.36
2023-04-28T16:12:44.963Z,75.62
2023-04-28T16:15:14.493Z,77.63
2023-04-28T16:17:43.303Z,80.50
2023-04-28T16:20:13.076Z,80.29
2023-04-28T16:22:42.550Z,79.61
2023-04-28T16:25:12.078Z,79.96
2023-04-28T16:27:42.048Z,79.49
2023-04-28T16:30:11.023Z,76.20
2023-04-28T16:32:39.458Z,77.06
2023-04-28T16:35:13.819Z,80.24
2023-04-28T16:37:44.269Z,82.12
2023-04-28T16:40:13.581Z,83.42
2023-04-28T16:42:43.023Z,82.46
2023-04-28T16:45:15.129Z,80.03
2023-04-28T16:47:44.743Z,80.82
2023-04-28T16:50:15.640Z,81.23
2023-04-28T16:52:44.185Z,80.98
2023-04-28T16:55:12.899Z,81.56
2023-04-28T16:57:41.457Z,82.24
2023-04-28T17:00:10.576Z,81.40
2023-04-28T17:02:39.396Z,81.57
2023-04-28T17:05:08.262Z,82.05
2023-04-28T17:07:36.770Z,80.69
2023-04-28T17:10:05.440Z,81.83
2023-04-28T17:12:33.829Z,81.62
2023-04-28T17:15:02.352Z,80.58
2023-04-28T17:17:30.832Z,79.08
2023-04-28T17:20:00.838Z,79.19
2023-04-28T17:22:33.180Z,78.84
2023-04-28T17:25:01.625Z,81.83
2023-04-28T17:27:30.074Z,81.82
2023-04-28T17:29:58.475Z,82.57
2023-04-28T17:32:27.024Z,84.06
2023-04-28T17:34:55.479Z,85.07
2023-04-28T17:37:25.092Z,86.20
2023-04-28T17:39:53.771Z,85.53
2023-04-28T17:42:22.259Z,85.30
2023-04-28T17:44:50.827Z,84.09
2023-04-28T17:47:19.856Z,84.41
2023-04-28T17:49:48.251Z,86.37
2023-04-28T17:52:17.068Z,85.23
2023-04-28T17:54:45.466Z,85.60
2023-04-28T17:57:14.308Z,84.11
2023-04-28T17:59:43.578Z,83.85
2023-04-28T18:02:12.599Z,83.97
2023-04-28T18:04:41.223Z,84.80
2023-04-28T18:07:09.746Z,85.24
2023-04-28T18:09:38.246Z,85.14
2023-04-28T18:12:07.886Z,85.90
2023-04-28T18:14:36.429Z,84.94
2023-04-28T18:17:04.829Z,84.61
2023-04-28T18:19:33.337Z,82.99
2023-04-28T18:22:01.902Z,84.19
2023-04-28T18:24:30.333Z,84.46
2023-04-28T18:26:58.709Z,83.61
2023-04-28T18:29:27.292Z,84.95
2023-04-28T18:31:56.671Z,85.70
2023-04-28T18:34:25.180Z,86.28
2023-04-28T18:36:53.631Z,87.14
2023-04-28T18:39:22.218Z,87.73
2023-04-28T18:41:50.663Z,89.48
2023-04-28T18:44:19.988Z,88.76
2023-04-28T18:46:48.391Z,88.56
2023-04-28T18:49:16.807Z,89.52
2023-04-28T18:51:45.259Z,89.84
2023-04-28T18:54:16.808Z,89.93
2023-04-28T18:56:45.523Z,90.47
2023-04-28T18:59:13.978Z,90.96
2023-04-28T19:01:42.378Z,90.09
2023-04-28T19:04:11.051Z,86.29
2023-04-28T19:06:39.733Z,85.10
2023-04-28T19:09:08.688Z,86.68
2023-04-28T19:11:37.077Z,86.33
2023-04-28T19:14:05.455Z,88.03
2023-04-28T19:16:33.977Z,87.66
2023-04-28T19:19:02.666Z,88.65
2023-04-28T19:21:31.381Z,88.92
2023-04-28T19:23:59.777Z,88.72
2023-04-28T19:26:28.235Z,88.71
2023-04-28T19:28:56.632Z,87.26
2023-04-28T19:31:25.355Z,85.83
2023-04-28T19:33:54.063Z,86.54
2023-04-28T19:36:23.387Z,88.04
2023-04-28T19:38:52.178Z,88.22
2023-04-28T19:41:21.904Z,88.67
2023-04-28T19:43:50.359Z,88.63
2023-04-28T19:46:19.099Z,89.04
2023-04-28T19:48:47.639Z,88.39
2023-04-28T19:51:16.175Z,88.80
2023-04-28T19:53:47.379Z,88.05
2023-04-28T19:56:15.819Z,87.39
2023-04-28T19:58:44.260Z,88.32
2023-04-28T20:01:12.787Z,88.83
2023-04-28T20:03:41.420Z,89.32
2023-04-28T20:06:11.053Z,89.98
2023-04-28T20:08:39.465Z,89.27
2023-04-28T20:11:08.709Z,88.38
2023-04-28T20:13:37.205Z,87.73
2023-04-28T20:16:07.996Z,88.63
2023-04-28T20:18:38.448Z,88.81
2023-04-28T20:21:06.917Z,90.01
2023-04-28T20:23:35.388Z,91.09
2023-04-28T20:26:04.486Z,91.60
2023-04-28T20:28:33.231Z,90.51
2023-04-28T20:31:01.835Z,89.62
2023-04-28T20:33:30.823Z,90.28
2023-04-28T20:35:59.693Z,90.28
2023-04-28T20:38:29.794Z,90.79
2023-04-28T20:41:01.032Z,91.22
2023-04-28T20:43:29.456Z,90.74
2023-04-28T20:45:58.886Z,90.19
2023-04-28T20:48:27.337Z,89.77
2023-04-28T20:50:56.366Z,90.67
2023-04-28T20:53:25.025Z,91.89
2023-04-28T20:55:53.465Z,91.85
2023-04-28T20:58:21.939Z,91.91
2023-04-28T21:00:50.410Z,91.38
2023-04-28T21:03:19.129Z,92.13
2023-04-28T21:05:47.719Z,91.35
2023-04-28T21:08:16.225Z,92.14
2023-04-28T21:10:44.672Z,92.02
2023-04-28T21:13:14.109Z,91.83
2023-04-28T21:15:43.141Z,91.37
2023-04-28T21:18:11.825Z,91.15
2023-04-28T21:20:40.305Z,88.25
2023-04-28T21:23:09.036Z,90.08
2023-04-28T21:25:37.855Z,91.11
2023-04-28T21:28:06.508Z,91.32
2023-04-28T21:30:37.160Z,90.86
2023-04-28T21:33:05.890Z,90.54
2023-04-28T21:35:34.671Z,91.71
2023-04-28T21:38:03.229Z,90.91
2023-04-28T21:40:32.247Z,89.37
2023-04-28T21:43:00.707Z,90.08
2023-04-28T21:45:29.170Z,92.02
2023-04-28T21:47:59.317Z,91.15
2023-04-28T21:50:28.086Z,90.43
2023-04-28T21:52:56.825Z,90.82
2023-04-28T21:55:25.497Z,92.07
2023-04-28T21:57:55.650Z,90.84
2023-04-28T22:00:25.504Z,91.82
2023-04-28T22:02:54.624Z,91.31
2023-04-28T22:05:25.658Z,90.54
2023-04-28T22:07:54.602Z,89.06
2023-04-28T22:10:23.854Z,90.70
2023-04-28T22:12:52.268Z,92.99
2023-04-28T22:15:20.774Z,93.72
2023-04-28T22:17:49.349Z,93.65
2023-04-28T22:20:17.892Z,92.57
2023-04-28T22:22:46.393Z,92.02
2023-04-28T22:25:14.818Z,90.93
2023-04-28T22:27:43.347Z,93.16
2023-04-28T22:30:12.317Z,94.27
2023-04-28T22:32:40.894Z,93.54
2023-04-28T22:35:10.001Z,93.16
2023-04-28T22:37:39.591Z,93.11
2023-04-28T22:40:09.496Z,93.52
2023-04-28T22:42:42.568Z,95.56
2023-04-28T22:45:12.125Z,96.02
2023-04-28T22:47:41.893Z,95.08
2023-04-28T22:50:13.551Z,93.42
2023-04-28T22:52:42.383Z,95.45
2023-04-28T22:55:11.113Z,95.91
2023-04-28T22:57:39.597Z,95.62
2023-04-28T23:00:09.411Z,95.65
2023-04-28T23:02:38.024Z,95.48
2023-04-28T23:05:07.104Z,96.45
2023-04-28T23:07:35.549Z,95.88
2023-04-28T23:10:06.097Z,95.62
2023-04-28T23:12:34.865Z,96.25
2023-04-28T23:15:03.465Z,97.19
2023-04-28T23:17:32.001Z,97.46
2023-04-28T23:20:00.450Z,97.91
2023-04-28T23:22:28.929Z,96.69
2023-04-28T23:24:57.414Z,97.46
2023-04-28T23:27:26.276Z,96.92
2023-04-28T23:29:54.739Z,97.27
2023-04-28T23:32:23.202Z,96.18
2023-04-28T23:34:51.809Z,96.96
2023-04-28T23:37:20.233Z,96.96
2023-04-28T23:39:48.956Z,94.79
2023-04-28T23:42:17.547Z,94.26
2023-04-28T23:44:45.980Z,93.78
2023-04-28T23:47:15.542Z,96.08
2023-04-28T23:49:44.046Z,95.32
2023-04-28T23:52:12.477Z,95.41
2023-04-28T23:54:41.168Z,95.85
2023-04-28T23:57:10.868Z,95.57
2023-04-28T23:59:39.384Z,94.17
